Time;durP1;ratioP1;P1;durP2;ratioP2;P2;SDS_P1;SDS_P2;PMS_P1;PMS_P2;Temp;Humidity;BMP_temperature;BMP_pressure;BME280_temperature;BME280_humidity;BME280_pressure;Samples;Min_cycle;Max_cycle;Signal;HPM_P1;HPM_P2
2023/01/12 00:00:35;;;;;;;23.35;4.20;;;;;;;;;;5055013;28;20108;-75
2023/01/12 00:03:01;;;;;;;24.73;3.95;;;;;;;;;;5055050;28;20033;-75
2023/01/12 00:05:27;;;;;;;28.80;4.00;;;;;;;;;;5054149;28;20025;-76
2023/01/12 00:07:53;;;;;;;30.60;4.22;;;;;;;;;;5054971;28;20036;-75
2023/01/12 00:10:19;;;;;;;28.08;3.88;;;;;;;;;;5053736;28;20031;-75
2023/01/12 00:12:45;;;;;;;26.17;4.72;;;;;;;;;;5056797;28;20036;-76
2023/01/12 00:15:11;;;;;;;24.60;4.30;;;;;;;;;;5062269;28;20021;-75
2023/01/12 00:17:37;;;;;;;20.77;3.63;;;;;;;;;;5060366;28;20466;-77
2023/01/12 00:20:04;;;;;;;34.45;4.53;;;;;;;;;;5058851;28;20029;-78
2023/01/12 00:22:30;;;;;;;32.53;4.10;;;;;;;;;;5058294;28;20021;-76
2023/01/12 00:24:56;;;;;;;25.17;4.20;;;;;;;;;;5058547;28;20452;-78
2023/01/12 00:27:21;;;;;;;29.52;4.18;;;;;;;;;;5058030;28;20031;-77
2023/01/12 00:29:48;;;;;;;25.67;3.55;;;;;;;;;;5059670;28;20461;-77
2023/01/12 00:32:19;;;;;;;21.58;3.88;;;;;;;;;;5056361;28;20055;-77
2023/01/12 00:34:45;;;;;;;29.83;4.30;;;;;;;;;;5061528;28;20077;-78
2023/01/12 00:37:11;;;;;;;22.08;4.00;;;;;;;;;;5059356;28;20536;-78
2023/01/12 00:39:37;;;;;;;28.58;3.67;;;;;;;;;;5059173;28;20024;-76
2023/01/12 00:47:34;;;;;;;33.92;5.20;;;;;;;;;;5060454;28;20032;-78
2023/01/12 00:49:59;;;;;;;17.40;2.97;;;;;;;;;;5062857;28;20044;-76
2023/01/12 00:52:27;;;;;;;22.25;4.03;;;;;;;;;;5070749;28;20072;-76
2023/01/12 00:54:53;;;;;;;32.33;3.65;;;;;;;;;;5060645;28;20085;-78
2023/01/12 00:57:19;;;;;;;29.25;3.70;;;;;;;;;;5059962;28;20159;-78
2023/01/12 00:59:46;;;;;;;23.65;3.28;;;;;;;;;;5059380;28;20029;-78
2023/01/12 01:02:12;;;;;;;19.63;3.58;;;;;;;;;;5056083;28;20037;-76
2023/01/12 01:04:38;;;;;;;20.25;3.83;;;;;;;;;;5055080;28;20054;-76
2023/01/12 01:07:04;;;;;;;25.60;3.55;;;;;;;;;;5055880;28;20025;-75
2023/01/12 01:09:30;;;;;;;30.80;3.72;;;;;;;;;;5059998;28;20064;-76
2023/01/12 01:11:56;;;;;;;29.45;3.83;;;;;;;;;;5058701;28;20474;-76
2023/01/12 01:14:22;;;;;;;30.50;3.75;;;;;;;;;;5055987;28;20029;-77
2023/01/12 01:16:48;;;;;;;26.63;3.50;;;;;;;;;;5054997;28;20025;-76
2023/01/12 01:19:14;;;;;;;21.92;3.50;;;;;;;;;;5067605;28;20028;-74
2023/01/12 01:21:40;;;;;;;17.08;3.35;;;;;;;;;;5063925;28;20478;-77
2023/01/12 01:24:11;;;;;;;23.10;3.40;;;;;;;;;;5058091;28;20055;-76
2023/01/12 01:26:36;;;;;;;21.50;3.67;;;;;;;;;;5062188;28;20029;-77
2023/01/12 01:29:02;;;;;;;21.85;3.28;;;;;;;;;;5056551;28;20102;-77
2023/01/12 01:31:28;;;;;;;23.38;3.63;;;;;;;;;;5056182;28;20031;-76
2023/01/12 01:33:55;;;;;;;27.90;3.90;;;;;;;;;;5063737;28;20021;-76
2023/01/12 01:36:21;;;;;;;19.17;2.80;;;;;;;;;;5061925;28;20100;-75
2023/01/12 01:38:47;;;;;;;13.30;2.50;;;;;;;;;;5057756;28;20044;-77
2023/01/12 01:41:20;;;;;;;9.65;2.45;;;;;;;;;;5052581;28;20112;-76
2023/01/12 01:43:50;;;;;;;12.32;2.25;;;;;;;;;;5058480;28;20040;-75
2023/01/12 01:46:20;;;;;;;17.38;3.35;;;;;;;;;;5072526;28;20037;-75
2023/01/12 01:48:47;;;;;;;28.30;4.10;;;;;;;;;;5076454;28;20028;-74
2023/01/12 01:51:15;;;;;;;17.98;3.67;;;;;;;;;;5074758;28;20052;-72
2023/01/12 01:53:43;;;;;;;23.27;3.67;;;;;;;;;;5075044;28;20013;-74
2023/01/12 01:56:15;;;;;;;26.05;4.05;;;;;;;;;;5073714;28;20025;-74
2023/01/12 01:58:44;;;;;;;22.50;3.70;;;;;;;;;;5074789;28;20021;-73
2023/01/12 02:01:10;;;;;;;23.95;3.47;;;;;;;;;;5074947;28;20059;-73
2023/01/12 02:03:37;;;;;;;24.70;4.13;;;;;;;;;;5074618;28;20097;-74
2023/01/12 02:06:03;;;;;;;19.17;3.30;;;;;;;;;;5074339;28;20089;-76
2023/01/12 02:08:49;;;;;;;23.45;3.35;;;;;;;;;;5074982;28;20039;-74
2023/01/12 02:17:05;;;;;;;16.23;3.33;;;;;;;;;;5075896;28;20105;-73
2023/01/12 02:20:00;;;;;;;24.48;3.80;;;;;;;;;;5076150;28;20120;-73
2023/01/12 02:22:43;;;;;;;24.40;3.50;;;;;;;;;;5073646;28;20036;-72
2023/01/12 02:25:21;;;;;;;16.17;3.20;;;;;;;;;;5074694;28;20039;-74
2023/01/12 02:28:04;;;;;;;17.95;2.92;;;;;;;;;;5074216;28;20029;-75
2023/01/12 02:30:48;;;;;;;19.20;3.97;;;;;;;;;;5073115;28;20059;-71
2023/01/12 02:33:14;;;;;;;20.33;3.53;;;;;;;;;;5077316;28;20025;-74
2023/01/12 02:35:57;;;;;;;20.00;3.70;;;;;;;;;;5078057;28;20495;-75
2023/01/12 02:38:42;;;;;;;23.02;4.07;;;;;;;;;;5075452;28;20043;-77
2023/01/12 02:41:17;;;;;;;20.98;3.50;;;;;;;;;;5077948;28;20032;-75
2023/01/12 02:43:44;;;;;;;19.50;4.15;;;;;;;;;;5078929;28;20017;-75
2023/01/12 02:46:22;;;;;;;20.42;3.38;;;;;;;;;;5043100;28;1055898;-74
2023/01/12 02:48:57;;;;;;;17.65;3.65;;;;;;;;;;5081488;28;20023;-75
2023/01/12 02:51:46;;;;;;;23.83;4.22;;;;;;;;;;5081145;28;20025;-74
2023/01/12 02:54:13;;;;;;;25.63;3.83;;;;;;;;;;5076371;28;20076;-75
2023/01/12 02:56:43;;;;;;;23.77;3.85;;;;;;;;;;5081532;28;20040;-74
2023/01/12 02:59:14;;;;;;;19.90;3.75;;;;;;;;;;5080995;28;20048;-74
2023/01/12 03:01:40;;;;;;;21.10;3.47;;;;;;;;;;5081593;28;20032;-75
2023/01/12 03:04:08;;;;;;;16.73;3.10;;;;;;;;;;5081515;28;20005;-74
2023/01/12 03:06:38;;;;;;;21.42;3.67;;;;;;;;;;5081296;28;20013;-75
2023/01/12 03:09:03;;;;;;;20.50;3.10;;;;;;;;;;5081421;28;20040;-74
2023/01/12 03:11:30;;;;;;;25.10;3.22;;;;;;;;;;5081281;28;20092;-75
2023/01/12 03:13:59;;;;;;;25.42;4.28;;;;;;;;;;5081185;28;20036;-74
2023/01/12 03:16:31;;;;;;;25.15;3.30;;;;;;;;;;5081189;28;20021;-73
2023/01/12 03:19:13;;;;;;;27.10;3.92;;;;;;;;;;5079906;28;20143;-74
2023/01/12 03:21:46;;;;;;;16.75;3.20;;;;;;;;;;5080620;28;20009;-73
2023/01/12 03:24:16;;;;;;;13.88;2.95;;;;;;;;;;5080491;28;20033;-72
2023/01/12 03:26:45;;;;;;;18.08;3.38;;;;;;;;;;5080405;28;20041;-74
2023/01/12 03:29:41;;;;;;;24.45;3.10;;;;;;;;;;5081017;28;20005;-73
2023/01/12 03:32:07;;;;;;;19.88;3.03;;;;;;;;;;5071984;28;20033;-73
2023/01/12 03:34:33;;;;;;;19.52;2.83;;;;;;;;;;5080919;28;20040;-74
2023/01/12 03:37:18;;;;;;;21.77;3.25;;;;;;;;;;5080774;28;20033;-74
2023/01/12 03:40:02;;;;;;;17.83;3.58;;;;;;;;;;5080909;28;20028;-74
2023/01/12 03:42:45;;;;;;;22.60;4.00;;;;;;;;;;5079048;28;20080;-74
2023/01/12 03:45:19;;;;;;;19.10;3.20;;;;;;;;;;5079054;28;20275;-73
2023/01/12 03:47:47;;;;;;;25.43;3.70;;;;;;;;;;5080190;28;20017;-74
2023/01/12 03:50:16;;;;;;;16.90;3.17;;;;;;;;;;5079441;28;20029;-73
2023/01/12 03:52:47;;;;;;;14.57;2.58;;;;;;;;;;5078559;28;20485;-74
2023/01/12 03:55:16;;;;;;;19.52;3.05;;;;;;;;;;5079512;28;20036;-74
2023/01/12 03:57:43;;;;;;;22.27;3.40;;;;;;;;;;5079735;28;20017;-75
2023/01/12 04:00:10;;;;;;;16.95;2.78;;;;;;;;;;5078535;28;20028;-75
2023/01/12 04:02:36;;;;;;;15.20;2.88;;;;;;;;;;5079752;28;20044;-73
2023/01/12 04:05:02;;;;;;;19.42;3.00;;;;;;;;;;5079576;28;20021;-74
2023/01/12 04:07:29;;;;;;;21.23;3.33;;;;;;;;;;5078890;28;20033;-73
2023/01/12 04:09:56;;;;;;;22.27;3.75;;;;;;;;;;5076090;28;20021;-76
2023/01/12 04:12:22;;;;;;;18.27;3.10;;;;;;;;;;5079794;28;20016;-74
2023/01/12 04:14:48;;;;;;;21.77;3.40;;;;;;;;;;5079171;28;20032;-74
2023/01/12 04:17:15;;;;;;;22.33;3.28;;;;;;;;;;5079194;28;20013;-75
2023/01/12 04:19:41;;;;;;;16.25;3.35;;;;;;;;;;5079999;28;20017;-75
2023/01/12 04:24:52;;;;;;;19.38;3.22;;;;;;;;;;5076818;28;20035;-76
2023/01/12 04:27:18;;;;;;;21.95;3.80;;;;;;;;;;5074239;28;20052;-76
2023/01/12 04:29:44;;;;;;;21.67;3.85;;;;;;;;;;5074740;28;20025;-76
2023/01/12 04:32:10;;;;;;;19.20;3.85;;;;;;;;;;5075231;28;20029;-76
2023/01/12 04:34:38;;;;;;;24.65;3.92;;;;;;;;;;5075526;28;20047;-77
2023/01/12 04:37:04;;;;;;;23.75;3.65;;;;;;;;;;5076640;28;20017;-75
2023/01/12 04:39:30;;;;;;;19.13;3.40;;;;;;;;;;5074998;28;20060;-76
2023/01/12 04:41:56;;;;;;;28.85;4.25;;;;;;;;;;5073399;28;20049;-76
2023/01/12 04:44:22;;;;;;;23.95;3.33;;;;;;;;;;5074395;28;20086;-75
2023/01/12 04:46:48;;;;;;;22.00;3.40;;;;;;;;;;5073230;28;20080;-76
2023/01/12 04:49:14;;;;;;;15.23;3.05;;;;;;;;;;5076136;28;20032;-76
2023/01/12 04:51:40;;;;;;;21.90;3.33;;;;;;;;;;5075405;28;20033;-76
2023/01/12 04:54:06;;;;;;;21.45;3.00;;;;;;;;;;5076451;28;20009;-75
2023/01/12 04:56:32;;;;;;;12.65;3.10;;;;;;;;;;5074450;28;20025;-75
2023/01/12 04:59:00;;;;;;;21.90;4.00;;;;;;;;;;5076137;28;20033;-77
2023/01/12 05:01:27;;;;;;;28.70;3.28;;;;;;;;;;5076778;28;20005;-76
2023/01/12 05:03:54;;;;;;;13.73;3.05;;;;;;;;;;5075698;28;20047;-76
2023/01/12 05:06:20;;;;;;;17.52;3.05;;;;;;;;;;5075340;28;20025;-76
2023/01/12 05:11:31;;;;;;;12.80;2.65;;;;;;;;;;5076450;28;20063;-76
2023/01/12 05:13:57;;;;;;;22.48;3.53;;;;;;;;;;5074973;28;20025;-76
2023/01/12 05:16:23;;;;;;;17.27;3.47;;;;;;;;;;5075979;28;20054;-77
2023/01/12 05:18:51;;;;;;;14.25;2.70;;;;;;;;;;5077854;28;20088;-75
2023/01/12 05:21:18;;;;;;;13.32;3.53;;;;;;;;;;5077098;28;20063;-76
2023/01/12 05:23:44;;;;;;;20.25;3.90;;;;;;;;;;5076939;28;20016;-76
2023/01/12 05:26:11;;;;;;;17.77;3.35;;;;;;;;;;5075770;28;20029;-75
2023/01/12 05:28:37;;;;;;;17.95;3.00;;;;;;;;;;5075639;28;20021;-76
2023/01/12 05:31:04;;;;;;;17.48;3.10;;;;;;;;;;5076694;28;20063;-75
2023/01/12 05:33:31;;;;;;;23.30;3.33;;;;;;;;;;5073422;28;20059;-75
2023/01/12 05:35:57;;;;;;;18.95;3.63;;;;;;;;;;5074282;28;20100;-75
2023/01/12 05:38:23;;;;;;;15.52;3.40;;;;;;;;;;5074906;28;20025;-74
2023/01/12 05:40:49;;;;;;;21.05;4.72;;;;;;;;;;5077696;28;20043;-75
2023/01/12 05:46:04;;;;;;;18.42;4.00;;;;;;;;;;5095870;23;20152;-72
2023/01/12 05:48:31;;;;;;;18.25;3.90;;;;;;;;;;5072328;28;20374;-73
2023/01/12 05:51:04;;;;;;;16.50;3.53;;;;;;;;;;5072082;28;20059;-73
2023/01/12 05:53:30;;;;;;;20.73;4.25;;;;;;;;;;5072187;28;20094;-73
2023/01/12 05:55:56;;;;;;;14.98;3.33;;;;;;;;;;5071365;28;20024;-73
2023/01/12 05:58:23;;;;;;;16.73;3.63;;;;;;;;;;5072132;28;20075;-72
2023/01/12 06:00:49;;;;;;;19.42;3.60;;;;;;;;;;5072223;28;20493;-73
2023/01/12 06:03:15;;;;;;;16.27;3.45;;;;;;;;;;5071875;28;20032;-72
2023/01/12 06:05:41;;;;;;;18.63;3.85;;;;;;;;;;5071323;28;20036;-73
2023/01/12 06:08:07;;;;;;;12.30;3.25;;;;;;;;;;5071718;28;20025;-72
2023/01/12 06:10:35;;;;;;;12.77;3.13;;;;;;;;;;5071457;28;20031;-73
2023/01/12 06:15:46;;;;;;;17.90;2.95;;;;;;;;;;5071281;28;20028;-73
2023/01/12 06:18:12;;;;;;;15.18;3.20;;;;;;;;;;5071892;28;20385;-74
2023/01/12 06:20:38;;;;;;;11.30;3.38;;;;;;;;;;5072393;28;20138;-72
2023/01/12 06:23:04;;;;;;;9.43;2.90;;;;;;;;;;5071446;28;20036;-74
2023/01/12 06:25:31;;;;;;;14.45;3.63;;;;;;;;;;5071000;28;20463;-74
2023/01/12 06:27:57;;;;;;;14.55;3.13;;;;;;;;;;5071530;28;20381;-76
2023/01/12 06:30:23;;;;;;;12.23;3.38;;;;;;;;;;5071537;28;20470;-73
2023/01/12 06:32:49;;;;;;;17.90;3.33;;;;;;;;;;5071915;28;20016;-75
2023/01/12 06:35:15;;;;;;;11.35;2.75;;;;;;;;;;5071985;28;20047;-74
2023/01/12 06:37:41;;;;;;;11.88;3.42;;;;;;;;;;5071372;28;20077;-75
2023/01/12 06:40:08;;;;;;;11.13;3.10;;;;;;;;;;5071672;28;20036;-73
2023/01/12 06:42:36;;;;;;;8.90;2.83;;;;;;;;;;5070854;28;20094;-75
2023/01/12 06:45:02;;;;;;;11.15;3.28;;;;;;;;;;5053074;28;20039;-74
2023/01/12 06:47:30;;;;;;;16.77;3.30;;;;;;;;;;5070950;28;20108;-75
2023/01/12 06:49:56;;;;;;;12.07;3.25;;;;;;;;;;5071212;28;20374;-75
2023/01/12 06:52:24;;;;;;;13.05;3.83;;;;;;;;;;5071660;28;20028;-73
2023/01/12 06:54:50;;;;;;;18.00;4.00;;;;;;;;;;5071842;28;20374;-74
2023/01/12 06:57:16;;;;;;;14.93;3.60;;;;;;;;;;5070910;28;20046;-73
2023/01/12 06:59:42;;;;;;;11.80;3.63;;;;;;;;;;5071291;28;20469;-74
2023/01/12 07:02:12;;;;;;;13.07;3.30;;;;;;;;;;5071366;28;20020;-74
2023/01/12 07:04:38;;;;;;;10.85;3.65;;;;;;;;;;5071414;28;20081;-74
2023/01/12 07:07:05;;;;;;;12.95;4.32;;;;;;;;;;5070790;28;20020;-72
2023/01/12 07:09:31;;;;;;;10.50;3.70;;;;;;;;;;5071449;28;20024;-72
2023/01/12 07:11:57;;;;;;;15.30;4.03;;;;;;;;;;5071081;28;20166;-72
2023/01/12 07:14:23;;;;;;;13.05;4.32;;;;;;;;;;5071175;28;20064;-71
2023/01/12 07:16:49;;;;;;;13.02;4.35;;;;;;;;;;5071003;28;20487;-71
2023/01/12 07:19:15;;;;;;;38.40;19.98;;;;;;;;;;5073392;28;20114;-73
2023/01/12 07:21:42;;;;;;;14.43;4.43;;;;;;;;;;5075241;28;20024;-76
2023/01/12 07:24:08;;;;;;;12.45;4.15;;;;;;;;;;5076456;28;20017;-73
2023/01/12 07:26:34;;;;;;;14.35;3.60;;;;;;;;;;5074548;28;20104;-75
2023/01/12 07:29:00;;;;;;;12.48;3.67;;;;;;;;;;5075064;28;20028;-73
2023/01/12 07:31:26;;;;;;;14.18;3.67;;;;;;;;;;5074372;28;20572;-72
2023/01/12 07:33:53;;;;;;;13.40;3.40;;;;;;;;;;5056754;28;20031;-73
2023/01/12 07:36:19;;;;;;;11.05;3.65;;;;;;;;;;5073889;28;20021;-73
2023/01/12 07:38:45;;;;;;;13.70;4.38;;;;;;;;;;5074617;28;20028;-73
2023/01/12 07:43:56;;;;;;;9.32;3.17;;;;;;;;;;5074814;28;20094;-73
2023/01/12 07:46:22;;;;;;;10.30;4.00;;;;;;;;;;5073957;28;20037;-74
2023/01/12 07:48:48;;;;;;;15.20;3.30;;;;;;;;;;5076085;28;20024;-74
2023/01/12 07:51:14;;;;;;;10.70;3.75;;;;;;;;;;5075735;28;20025;-76
2023/01/12 07:53:40;;;;;;;9.18;3.40;;;;;;;;;;5074840;28;20025;-74
2023/01/12 07:56:06;;;;;;;6.97;3.15;;;;;;;;;;5074994;28;20283;-76
2023/01/12 07:58:32;;;;;;;9.27;3.30;;;;;;;;;;5076759;28;20017;-74
2023/01/12 08:00:59;;;;;;;13.50;4.25;;;;;;;;;;5074396;28;20021;-73
2023/01/12 08:03:25;;;;;;;13.57;3.20;;;;;;;;;;5074401;28;20096;-72
2023/01/12 08:05:51;;;;;;;11.90;2.80;;;;;;;;;;5078820;28;20079;-73
2023/01/12 08:08:17;;;;;;;12.65;3.20;;;;;;;;;;5075487;28;20029;-73
2023/01/12 08:10:44;;;;;;;7.95;2.28;;;;;;;;;;5074135;28;20064;-74
2023/01/12 08:13:10;;;;;;;6.53;2.45;;;;;;;;;;5074502;28;20503;-74
2023/01/12 08:15:39;;;;;;;5.65;2.13;;;;;;;;;;5074412;28;20111;-75
2023/01/12 08:18:12;;;;;;;12.38;2.50;;;;;;;;;;5074110;28;20024;-72
2023/01/12 08:20:38;;;;;;;7.60;2.63;;;;;;;;;;5073725;28;20028;-73
2023/01/12 08:23:15;;;;;;;7.25;2.25;;;;;;;;;;5073620;28;20033;-74
2023/01/12 08:25:43;;;;;;;11.65;1.85;;;;;;;;;;5073575;28;20112;-73
2023/01/12 08:28:12;;;;;;;6.88;1.70;;;;;;;;;;5073919;28;20390;-77
2023/01/12 08:30:38;;;;;;;7.35;1.50;;;;;;;;;;5072813;28;20024;-77
2023/01/12 08:33:04;;;;;;;9.05;2.15;;;;;;;;;;5074942;28;20047;-75
2023/01/12 08:35:32;;;;;;;8.98;1.75;;;;;;;;;;5073357;28;20027;-71
2023/01/12 08:37:58;;;;;;;10.95;1.50;;;;;;;;;;5073689;28;20043;-72
2023/01/12 08:41:31;;;;;;;9.68;1.63;;;;;;;;;;5055743;28;20024;-72
2023/01/12 08:43:10;;;;;;;7.45;1.60;;;;;;;;;;5073635;28;20029;-73
2023/01/12 08:45:36;;;;;;;8.32;1.52;;;;;;;;;;5072674;28;20044;-75
2023/01/12 08:48:02;;;;;;;4.97;1.25;;;;;;;;;;5073284;28;20162;-75
2023/01/12 08:50:28;;;;;;;4.90;1.40;;;;;;;;;;5073293;28;20028;-74
2023/01/12 08:52:54;;;;;;;15.85;6.82;;;;;;;;;;5073133;28;20017;-74
2023/01/12 08:55:20;;;;;;;6.13;1.35;;;;;;;;;;5072915;28;20032;-74
2023/01/12 08:57:46;;;;;;;4.03;1.30;;;;;;;;;;5072890;28;20028;-73
2023/01/12 09:00:12;;;;;;;4.32;1.10;;;;;;;;;;5073141;28;20105;-72
2023/01/12 09:02:38;;;;;;;5.80;1.42;;;;;;;;;;5072930;28;20035;-74
2023/01/12 09:05:04;;;;;;;3.58;1.20;;;;;;;;;;5072846;28;20486;-74
2023/01/12 09:07:31;;;;;;;4.68;1.75;;;;;;;;;;5072313;28;20032;-72
2023/01/12 09:09:57;;;;;;;3.45;1.30;;;;;;;;;;5072952;28;20073;-72
2023/01/12 09:12:25;;;;;;;7.47;1.23;;;;;;;;;;5072566;28;20021;-73
2023/01/12 09:14:52;;;;;;;3.72;1.27;;;;;;;;;;5072740;28;20027;-72
2023/01/12 09:17:21;;;;;;;4.72;1.00;;;;;;;;;;5072178;28;20021;-72
2023/01/12 09:19:49;;;;;;;3.80;1.38;;;;;;;;;;5072655;28;20449;-72
2023/01/12 09:22:15;;;;;;;2.58;1.02;;;;;;;;;;5072225;28;20052;-73
2023/01/12 09:24:41;;;;;;;3.85;1.35;;;;;;;;;;5070180;28;20048;-73
2023/01/12 09:27:07;;;;;;;4.88;1.35;;;;;;;;;;5053892;28;20531;-71
2023/01/12 09:29:33;;;;;;;2.90;1.10;;;;;;;;;;5072400;28;20017;-74
2023/01/12 09:31:59;;;;;;;4.00;1.20;;;;;;;;;;5072154;28;20043;-73
2023/01/12 09:34:25;;;;;;;6.00;2.50;;;;;;;;;;5072404;28;20138;-73
2023/01/12 09:36:52;;;;;;;4.05;1.20;;;;;;;;;;5071543;28;20401;-73
2023/01/12 09:39:17;;;;;;;3.13;0.90;;;;;;;;;;5072456;28;20480;-72
2023/01/12 09:47:30;;;;;;;2.63;1.05;;;;;;;;;;5071710;28;20128;-73
2023/01/12 09:50:03;;;;;;;4.35;1.13;;;;;;;;;;5072005;28;20021;-72
2023/01/12 09:52:31;;;;;;;2.95;0.93;;;;;;;;;;5071828;28;20025;-73
2023/01/12 09:54:57;;;;;;;7.13;1.20;;;;;;;;;;5072281;28;20025;-73
2023/01/12 09:57:41;;;;;;;2.58;1.10;;;;;;;;;;5071650;28;20103;-73
2023/01/12 10:00:07;;;;;;;6.07;1.55;;;;;;;;;;5071884;28;20469;-75
2023/01/12 10:02:34;;;;;;;5.63;1.58;;;;;;;;;;5071584;28;20031;-73
2023/01/12 10:05:02;;;;;;;6.25;1.63;;;;;;;;;;5071794;28;20029;-72
2023/01/12 10:07:28;;;;;;;6.10;1.60;;;;;;;;;;5071520;28;20119;-72
2023/01/12 10:09:54;;;;;;;2.75;1.00;;;;;;;;;;5071700;28;20446;-73
2023/01/12 10:12:41;;;;;;;2.53;1.02;;;;;;;;;;5071845;28;20021;-72
2023/01/12 10:15:13;;;;;;;2.33;1.17;;;;;;;;;;5072232;28;20031;-72
2023/01/12 10:17:46;;;;;;;5.10;1.30;;;;;;;;;;5071156;28;20380;-72
2023/01/12 10:20:14;;;;;;;3.25;1.05;;;;;;;;;;5072020;28;20025;-75
2023/01/12 10:22:44;;;;;;;1.65;1.00;;;;;;;;;;5071673;28;20047;-75
2023/01/12 10:25:21;;;;;;;3.45;1.17;;;;;;;;;;5071775;28;20025;-73
2023/01/12 10:27:47;;;;;;;2.97;1.00;;;;;;;;;;5071427;28;20481;-74
2023/01/12 10:30:15;;;;;;;2.75;0.90;;;;;;;;;;5071512;28;20024;-74
2023/01/12 10:32:41;;;;;;;6.20;2.38;;;;;;;;;;5071473;28;20032;-73
2023/01/12 10:35:18;;;;;;;4.90;3.00;;;;;;;;;;5071304;28;20029;-74
2023/01/12 10:37:45;;;;;;;3.30;1.00;;;;;;;;;;5071154;28;20092;-77
2023/01/12 10:40:31;;;;;;;1.90;1.00;;;;;;;;;;5054112;28;20032;-76
2023/01/12 10:43:18;;;;;;;2.90;1.75;;;;;;;;;;5072247;28;20028;-77
2023/01/12 10:46:07;;;;;;;5.78;1.00;;;;;;;;;;5071022;28;20090;-74
2023/01/12 10:48:33;;;;;;;2.25;1.15;;;;;;;;;;5059611;28;20040;-75
2023/01/12 10:51:01;;;;;;;1.88;0.93;;;;;;;;;;5071479;28;20082;-75
2023/01/12 10:53:29;;;;;;;1.92;1.10;;;;;;;;;;5073245;28;20028;-76
2023/01/12 10:55:55;;;;;;;3.13;1.10;;;;;;;;;;5075045;28;20473;-75
2023/01/12 10:58:26;;;;;;;2.05;1.00;;;;;;;;;;5075784;28;20482;-75
2023/01/12 11:00:53;;;;;;;2.65;1.20;;;;;;;;;;5075320;28;20400;-74
2023/01/12 11:03:29;;;;;;;3.67;1.60;;;;;;;;;;5075521;28;20436;-74
2023/01/12 11:05:55;;;;;;;5.30;1.30;;;;;;;;;;5074693;28;20077;-74
2023/01/12 11:08:27;;;;;;;4.35;1.20;;;;;;;;;;5075173;28;20024;-74
2023/01/12 11:10:53;;;;;;;5.07;1.05;;;;;;;;;;5075005;28;20024;-75
2023/01/12 11:13:25;;;;;;;3.45;1.20;;;;;;;;;;5075347;28;20143;-73
2023/01/12 11:15:59;;;;;;;3.47;1.27;;;;;;;;;;5074496;28;20021;-73
2023/01/12 11:18:32;;;;;;;2.65;1.10;;;;;;;;;;5075288;28;20492;-74
2023/01/12 11:21:02;;;;;;;4.20;1.58;;;;;;;;;;5056959;28;20028;-76
2023/01/12 11:23:31;;;;;;;3.60;1.38;;;;;;;;;;5075162;28;20024;-75
2023/01/12 11:25:58;;;;;;;2.83;1.20;;;;;;;;;;5056742;28;20052;-73
2023/01/12 11:28:24;;;;;;;4.32;1.27;;;;;;;;;;5074618;28;20533;-75
2023/01/12 11:30:59;;;;;;;3.33;1.00;;;;;;;;;;5074694;28;20158;-75
2023/01/12 11:33:26;;;;;;;1.60;1.02;;;;;;;;;;5074822;28;20028;-75
2023/01/12 11:35:59;;;;;;;2.47;1.15;;;;;;;;;;5074172;28;20024;-74
2023/01/12 11:38:33;;;;;;;2.95;1.10;;;;;;;;;;5074934;28;20167;-73
2023/01/12 11:40:59;;;;;;;2.10;1.08;;;;;;;;;;5074710;28;20090;-74
2023/01/12 11:43:48;;;;;;;5.95;1.40;;;;;;;;;;5074650;28;20497;-76
2023/01/12 11:46:17;;;;;;;2.35;0.90;;;;;;;;;;5074437;28;20054;-73
2023/01/12 11:49:03;;;;;;;3.35;0.90;;;;;;;;;;5074889;28;20150;-73
2023/01/12 11:51:29;;;;;;;2.42;0.80;;;;;;;;;;5043059;28;20068;-76
2023/01/12 11:53:55;;;;;;;2.85;0.98;;;;;;;;;;5075043;28;20064;-76
2023/01/12 11:56:40;;;;;;;1.30;0.90;;;;;;;;;;5074723;28;20400;-74
2023/01/12 11:59:10;;;;;;;2.60;1.67;;;;;;;;;;5075311;28;20027;-74
2023/01/12 12:01:39;;;;;;;3.25;1.88;;;;;;;;;;5074495;28;20031;-74
2023/01/12 12:04:12;;;;;;;3.13;1.63;;;;;;;;;;5073113;28;20029;-74
2023/01/12 12:07:00;;;;;;;3.30;1.55;;;;;;;;;;5072619;28;20393;-74
2023/01/12 12:09:44;;;;;;;4.65;1.20;;;;;;;;;;5074004;28;20086;-73
2023/01/12 12:12:25;;;;;;;1.75;1.15;;;;;;;;;;5074010;28;20029;-75
2023/01/12 12:15:00;;;;;;;24.10;13.98;;;;;;;;;;5074082;28;20032;-78
2023/01/12 12:17:26;;;;;;;8.52;4.47;;;;;;;;;;5074382;28;20028;-78
2023/01/12 12:20:01;;;;;;;3.15;1.63;;;;;;;;;;5074647;28;20066;-75
2023/01/12 12:22:37;;;;;;;4.82;1.80;;;;;;;;;;5074088;28;20059;-74
2023/01/12 12:25:21;;;;;;;2.80;1.73;;;;;;;;;;5073693;28;20016;-73
2023/01/12 12:28:09;;;;;;;3.47;2.20;;;;;;;;;;5073652;28;20481;-74
2023/01/12 12:30:44;;;;;;;3.83;1.90;;;;;;;;;;5073786;28;20047;-74
2023/01/12 12:33:29;;;;;;;2.97;1.40;;;;;;;;;;5073680;28;20024;-74
2023/01/12 12:36:00;;;;;;;4.82;2.42;;;;;;;;;;5073125;28;20070;-74
2023/01/12 12:38:26;;;;;;;3.58;1.67;;;;;;;;;;5073900;28;20024;-73
2023/01/12 12:46:23;;;;;;;3.75;1.20;;;;;;;;;;5073064;28;20047;-73
2023/01/12 12:48:49;;;;;;;4.30;1.40;;;;;;;;;;5073336;28;20028;-72
2023/01/12 12:51:16;;;;;;;5.95;1.20;;;;;;;;;;5072754;28;20033;-73
2023/01/12 12:53:49;;;;;;;5.35;1.90;;;;;;;;;;5072679;28;20028;-74
2023/01/12 12:56:16;;;;;;;5.45;1.33;;;;;;;;;;5072568;28;20091;-74
2023/01/12 12:58:46;;;;;;;2.55;1.17;;;;;;;;;;5072716;28;20020;-74
2023/01/12 13:01:37;;;;;;;6.28;1.50;;;;;;;;;;5072905;28;20036;-74
2023/01/12 13:04:04;;;;;;;10.10;1.30;;;;;;;;;;5065245;28;20029;-73
2023/01/12 13:06:49;;;;;;;9.50;1.70;;;;;;;;;;5072194;28;20095;-75
2023/01/12 13:09:14;;;;;;;8.15;2.45;;;;;;;;;;5072637;28;20107;-73
2023/01/12 13:11:54;;;;;;;8.93;2.00;;;;;;;;;;5072618;28;20162;-73
2023/01/12 13:14:26;;;;;;;10.43;2.15;;;;;;;;;;5072835;28;20372;-76
2023/01/12 13:16:53;;;;;;;10.45;1.98;;;;;;;;;;5072184;28;20044;-76
2023/01/12 13:19:39;;;;;;;10.38;1.95;;;;;;;;;;5055435;28;20546;-75
2023/01/12 13:22:40;;;;;;;17.45;3.70;;;;;;;;;;5073992;28;20040;-78
2023/01/12 13:25:09;;;;;;;17.40;3.03;;;;;;;;;;5012739;28;20061;-78
2023/01/12 13:27:49;;;;;;;28.90;3.90;;;;;;;;;;5062055;28;20036;-75
2023/01/12 13:30:18;;;;;;;19.77;3.42;;;;;;;;;;5072153;28;20393;-74
2023/01/12 13:32:50;;;;;;;36.63;4.13;;;;;;;;;;5072662;28;20025;-75
2023/01/12 13:35:48;;;;;;;28.45;3.40;;;;;;;;;;5072373;28;20162;-74
2023/01/12 13:38:33;;;;;;;32.13;3.47;;;;;;;;;;5072072;28;20752;-74
2023/01/12 13:41:16;;;;;;;29.58;3.35;;;;;;;;;;5071915;28;20385;-73
2023/01/12 13:43:45;;;;;;;27.88;3.78;;;;;;;;;;5072048;28;20036;-74
2023/01/12 13:46:15;;;;;;;36.05;4.28;;;;;;;;;;5071513;28;20036;-78
2023/01/12 13:48:43;;;;;;;33.55;4.15;;;;;;;;;;5054136;28;20111;-74
2023/01/12 13:51:38;;;;;;;30.60;4.47;;;;;;;;;;5070937;28;20025;-75
2023/01/12 13:54:12;;;;;;;31.75;4.82;;;;;;;;;;5058805;28;20079;-75
2023/01/12 13:56:39;;;;;;;31.63;4.32;;;;;;;;;;5071186;28;20153;-73
2023/01/12 13:59:06;;;;;;;22.67;3.83;;;;;;;;;;5071633;28;20028;-74
2023/01/12 14:01:32;;;;;;;26.05;4.47;;;;;;;;;;5071892;28;20070;-75
2023/01/12 14:04:06;;;;;;;27.20;3.47;;;;;;;;;;5071555;28;20059;-74
2023/01/12 14:06:31;;;;;;;33.60;6.82;;;;;;;;;;5071023;28;20546;-75
2023/01/12 14:09:16;;;;;;;33.17;4.82;;;;;;;;;;5072041;28;20029;-74
2023/01/12 14:11:42;;;;;;;27.20;5.13;;;;;;;;;;5071430;28;20431;-72
2023/01/12 14:19:58;;;;;;;27.92;4.55;;;;;;;;;;5071755;28;20110;-74
2023/01/12 14:22:24;;;;;;;34.35;4.90;;;;;;;;;;5071830;28;20458;-78
2023/01/12 14:24:50;;;;;;;29.73;4.00;;;;;;;;;;5071932;28;20112;-75
2023/01/12 14:27:22;;;;;;;42.58;5.22;;;;;;;;;;5070667;28;20025;-73
2023/01/12 14:29:49;;;;;;;30.75;6.22;;;;;;;;;;5071427;28;20024;-74
2023/01/12 14:32:15;;;;;;;31.98;4.03;;;;;;;;;;5071110;28;20028;-75
2023/01/12 14:34:48;;;;;;;25.00;4.25;;;;;;;;;;5071341;28;20020;-72
2023/01/12 14:37:40;;;;;;;33.15;4.07;;;;;;;;;;5071209;28;20027;-74
2023/01/12 14:40:06;;;;;;;25.58;4.28;;;;;;;;;;5068359;28;20037;-74
2023/01/12 14:48:20;;;;;;;29.02;4.15;;;;;;;;;;5071400;28;20416;-74
2023/01/12 14:51:06;;;;;;;21.95;4.00;;;;;;;;;;5071265;28;20024;-78
2023/01/12 14:53:34;;;;;;;32.28;4.32;;;;;;;;;;5060401;28;20094;-74
2023/01/12 14:56:15;;;;;;;27.50;4.65;;;;;;;;;;5070411;28;20088;-74
2023/01/12 14:58:41;;;;;;;27.67;3.95;;;;;;;;;;5071186;28;20366;-73
2023/01/12 15:01:07;;;;;;;35.33;5.22;;;;;;;;;;5071396;28;20067;-74
2023/01/12 15:03:33;;;;;;;47.40;5.38;;;;;;;;;;5071585;28;20032;-74
2023/01/12 15:05:59;;;;;;;28.70;5.00;;;;;;;;;;5070409;28;20033;-74
2023/01/12 15:08:26;;;;;;;33.38;5.28;;;;;;;;;;5071472;28;20021;-74
2023/01/12 15:10:59;;;;;;;23.88;4.28;;;;;;;;;;5071275;28;20544;-75
2023/01/12 15:13:32;;;;;;;33.17;4.85;;;;;;;;;;5071055;28;20398;-75
2023/01/12 15:27:16;;;;;;;32.92;7.43;;;;;;;;;;5070676;28;20078;-75
2023/01/12 15:29:42;;;;;;;38.92;5.30;;;;;;;;;;5070799;28;20028;-75
2023/01/12 15:32:21;;;;;;;25.23;3.50;;;;;;;;;;5071100;28;20108;-75
2023/01/12 15:34:47;;;;;;;24.05;4.15;;;;;;;;;;5071300;28;20048;-73
2023/01/12 15:37:17;;;;;;;54.25;14.27;;;;;;;;;;5070936;28;20024;-77
2023/01/12 15:39:43;;;;;;;23.58;6.03;;;;;;;;;;5072170;28;20227;-74
2023/01/12 15:42:16;;;;;;;26.52;6.55;;;;;;;;;;5074587;28;20020;-74
2023/01/12 15:44:45;;;;;;;27.35;3.97;;;;;;;;;;5075086;28;20493;-74
2023/01/12 15:47:11;;;;;;;25.63;4.30;;;;;;;;;;5074317;28;20419;-75